sensor_id;sensor_type;location;lat;lon;timestamp;pressure;altitude;pressure_sealevel;temperature;humidity
77299;BME280;66361;52.034;20.656;2024-03-23T00:54:19;99141.34;;;8.42;93.90
77299;BME280;66361;52.034;20.656;2024-03-23T00:58:02;99129.13;;;8.41;94.59
77299;BME280;66361;52.034;20.656;2024-03-23T01:01:45;99120.47;;;8.39;94.27
77299;BME280;66361;52.034;20.656;2024-03-23T01:05:27;99130.97;;;8.39;94.39
77299;BME280;66361;52.034;20.656;2024-03-23T01:09:10;99115.22;;;8.39;94.24
77299;BME280;66361;52.034;20.656;2024-03-23T01:12:56;99118.75;;;8.38;94.72
77299;BME280;66361;52.034;20.656;2024-03-23T01:16:39;99122.34;;;8.37;94.80
77299;BME280;66361;52.034;20.656;2024-03-23T01:20:21;99115.31;;;8.37;95.55
77299;BME280;66361;52.034;20.656;2024-03-23T01:24:05;99104.88;;;8.36;95.05
77299;BME280;66361;52.034;20.656;2024-03-23T01:27:48;99111.84;;;8.37;95.74
77299;BME280;66361;52.034;20.656;2024-03-23T01:31:32;99106.56;;;8.37;95.13
77299;BME280;66361;52.034;20.656;2024-03-23T01:35:14;99109.03;;;8.40;96.39
77299;BME280;66361;52.034;20.656;2024-03-23T01:38:57;99106.41;;;8.40;95.99
77299;BME280;66361;52.034;20.656;2024-03-23T01:42:40;99095.91;;;8.40;95.81
77299;BME280;66361;52.034;20.656;2024-03-23T01:46:23;99090.66;;;8.40;95.68
77299;BME280;66361;52.034;20.656;2024-03-23T01:50:08;99097.38;;;8.46;96.06
77299;BME280;66361;52.034;20.656;2024-03-23T01:53:53;99100.00;;;8.46;96.54
77299;BME280;66361;52.034;20.656;2024-03-23T01:57:37;99092.03;;;8.47;96.89
77299;BME280;66361;52.034;20.656;2024-03-23T02:01:19;99089.47;;;8.46;96.67
77299;BME280;66361;52.034;20.656;2024-03-23T02:05:02;99076.22;;;8.49;96.12
77299;BME280;66361;52.034;20.656;2024-03-23T02:08:46;99091.91;;;8.50;96.73
77299;BME280;66361;52.034;20.656;2024-03-23T02:12:29;99087.44;;;8.52;96.53
77299;BME280;66361;52.034;20.656;2024-03-23T02:16:12;99078.84;;;8.49;96.97
77299;BME280;66361;52.034;20.656;2024-03-23T02:19:55;99078.69;;;8.52;96.56
77299;BME280;66361;52.034;20.656;2024-03-23T02:23:40;99077.75;;;8.53;97.75
77299;BME280;66361;52.034;20.656;2024-03-23T02:27:24;99075.22;;;8.51;96.54
77299;BME280;66361;52.034;20.656;2024-03-23T02:31:07;99075.13;;;8.53;97.01
77299;BME280;66361;52.034;20.656;2024-03-23T02:34:49;99063.78;;;8.52;97.24
77299;BME280;66361;52.034;20.656;2024-03-23T02:38:31;99071.56;;;8.54;97.42
77299;BME280;66361;52.034;20.656;2024-03-23T02:42:15;99066.31;;;8.54;97.14
77299;BME280;66361;52.034;20.656;2024-03-23T02:45:59;99063.69;;;8.54;97.34
77299;BME280;66361;52.034;20.656;2024-03-23T02:49:42;99055.91;;;8.52;98.07
77299;BME280;66361;52.034;20.656;2024-03-23T02:53:24;99050.66;;;8.52;97.80
77299;BME280;66361;52.034;20.656;2024-03-23T02:57:07;99042.75;;;8.52;97.73
77299;BME280;66361;52.034;20.656;2024-03-23T03:00:50;99039.28;;;8.52;97.34
77299;BME280;66361;52.034;20.656;2024-03-23T03:04:32;99039.34;;;8.50;97.76
77299;BME280;66361;52.034;20.656;2024-03-23T03:08:15;99041.06;;;8.51;97.61
77299;BME280;66361;52.034;20.656;2024-03-23T03:11:58;99034.03;;;8.52;98.28
77299;BME280;66361;52.034;20.656;2024-03-23T03:15:40;99039.28;;;8.52;97.61
77299;BME280;66361;52.034;20.656;2024-03-23T03:19:23;99036.66;;;8.52;98.22
77299;BME280;66361;52.034;20.656;2024-03-23T03:23:07;99026.28;;;8.49;98.38
77299;BME280;66361;52.034;20.656;2024-03-23T03:26:50;99035.81;;;8.51;98.23
77299;BME280;66361;52.034;20.656;2024-03-23T03:30:32;99033.25;;;8.50;97.77
77299;BME280;66361;52.034;20.656;2024-03-23T03:34:15;99027.13;;;8.49;97.96
77299;BME280;66361;52.034;20.656;2024-03-23T03:37:59;99028.00;;;8.50;97.85
77299;BME280;66361;52.034;20.656;2024-03-23T03:41:42;99024.66;;;8.46;98.13
77299;BME280;66361;52.034;20.656;2024-03-23T03:45:24;99025.44;;;8.48;98.39
77299;BME280;66361;52.034;20.656;2024-03-23T03:49:07;99021.03;;;8.49;98.47
77299;BME280;66361;52.034;20.656;2024-03-23T03:52:50;99016.63;;;8.49;98.38
77299;BME280;66361;52.034;20.656;2024-03-23T03:56:34;99018.25;;;8.52;98.21
77299;BME280;66361;52.034;20.656;2024-03-23T04:00:17;99023.50;;;8.52;98.31
77299;BME280;66361;52.034;20.656;2024-03-23T04:04:01;99020.97;;;8.50;98.79
77299;BME280;66361;52.034;20.656;2024-03-23T04:07:43;99001.72;;;8.50;98.70
77299;BME280;66361;52.034;20.656;2024-03-23T04:11:25;99005.97;;;8.52;98.83
77299;BME280;66361;52.034;20.656;2024-03-23T04:15:09;99002.63;;;8.49;98.68
77299;BME280;66361;52.034;20.656;2024-03-23T04:18:51;99004.25;;;8.51;98.29
77299;BME280;66361;52.034;20.656;2024-03-23T04:22:35;99007.81;;;8.50;98.59
77299;BME280;66361;52.034;20.656;2024-03-23T04:26:16;98995.53;;;8.51;98.75
77299;BME280;66361;52.034;20.656;2024-03-23T04:29:59;98990.41;;;8.48;98.74
77299;BME280;66361;52.034;20.656;2024-03-23T04:33:43;98978.97;;;8.49;98.33
77299;BME280;66361;52.034;20.656;2024-03-23T04:37:26;98972.88;;;8.48;98.64
77299;BME280;66361;52.034;20.656;2024-03-23T04:41:09;98971.03;;;8.50;98.89
77299;BME280;66361;52.034;20.656;2024-03-23T04:44:51;98971.88;;;8.51;98.96
77299;BME280;66361;52.034;20.656;2024-03-23T04:48:34;98968.41;;;8.50;98.26
77299;BME280;66361;52.034;20.656;2024-03-23T04:52:19;98962.13;;;8.53;98.10
77299;BME280;66361;52.034;20.656;2024-03-23T04:56:01;98961.13;;;8.55;99.04
77299;BME280;66361;52.034;20.656;2024-03-23T04:59:45;98966.31;;;8.57;99.18
77299;BME280;66361;52.034;20.656;2024-03-23T05:03:28;98954.69;;;8.61;98.56
77299;BME280;66361;52.034;20.656;2024-03-23T05:07:11;98954.63;;;8.62;99.28
77299;BME280;66361;52.034;20.656;2024-03-23T05:10:54;98954.63;;;8.62;98.61
77299;BME280;66361;52.034;20.656;2024-03-23T05:14:37;98944.81;;;8.66;98.66
77299;BME280;66361;52.034;20.656;2024-03-23T05:18:20;98942.94;;;8.68;99.01
77299;BME280;66361;52.034;20.656;2024-03-23T05:22:03;98945.47;;;8.69;98.60
77299;BME280;66361;52.034;20.656;2024-03-23T05:25:45;98941.84;;;8.72;99.04
77299;BME280;66361;52.034;20.656;2024-03-23T05:29:29;98950.41;;;8.75;98.12
77299;BME280;66361;52.034;20.656;2024-03-23T05:33:11;98938.28;;;8.73;98.82
77299;BME280;66361;52.034;20.656;2024-03-23T05:36:54;98936.53;;;8.73;98.98
77299;BME280;66361;52.034;20.656;2024-03-23T05:40:36;98944.41;;;8.73;98.57
77299;BME280;66361;52.034;20.656;2024-03-23T05:44:21;98926.94;;;8.72;98.51
77299;BME280;66361;52.034;20.656;2024-03-23T05:48:06;98927.59;;;8.76;98.83
77299;BME280;66361;52.034;20.656;2024-03-23T05:51:49;98922.28;;;8.77;99.01
77299;BME280;66361;52.034;20.656;2024-03-23T05:55:31;98916.88;;;8.80;98.39
77299;BME280;66361;52.034;20.656;2024-03-23T05:59:14;98920.22;;;8.82;98.63
77299;BME280;66361;52.034;20.656;2024-03-23T06:02:57;98914.81;;;8.86;98.47
77299;BME280;66361;52.034;20.656;2024-03-23T06:06:41;98923.63;;;8.85;98.88
77299;BME280;66361;52.034;20.656;2024-03-23T06:10:24;98927.13;;;8.85;99.05
77299;BME280;66361;52.034;20.656;2024-03-23T06:14:06;98913.91;;;8.87;98.78
77299;BME280;66361;52.034;20.656;2024-03-23T06:17:49;98916.28;;;8.91;98.40
77299;BME280;66361;52.034;20.656;2024-03-23T06:21:32;98915.25;;;8.94;99.06
77299;BME280;66361;52.034;20.656;2024-03-23T06:25:16;98908.91;;;8.98;98.71
77299;BME280;66361;52.034;20.656;2024-03-23T06:28:59;98908.75;;;9.01;98.75
77299;BME280;66361;52.034;20.656;2024-03-23T06:32:42;98911.88;;;9.07;98.23
77299;BME280;66361;52.034;20.656;2024-03-23T06:36:25;98902.81;;;9.13;98.28
77299;BME280;66361;52.034;20.656;2024-03-23T06:40:08;98897.38;;;9.16;98.50
77299;BME280;66361;52.034;20.656;2024-03-23T06:43:53;98898.81;;;9.21;98.71
77299;BME280;66361;52.034;20.656;2024-03-23T06:47:36;98891.09;;;9.18;98.02
77299;BME280;66361;52.034;20.656;2024-03-23T06:51:19;98898.81;;;9.21;98.50
77299;BME280;66361;52.034;20.656;2024-03-23T06:55:02;98894.34;;;9.24;97.70
77299;BME280;66361;52.034;20.656;2024-03-23T06:58:46;98886.78;;;9.33;97.43
77299;BME280;66361;52.034;20.656;2024-03-23T07:02:31;98879.13;;;9.29;97.85
77299;BME280;66361;52.034;20.656;2024-03-23T07:06:13;98871.22;;;9.29;97.67
77299;BME280;66361;52.034;20.656;2024-03-23T07:09:55;98873.94;;;9.27;97.65
77299;BME280;66361;52.034;20.656;2024-03-23T07:13:38;98859.94;;;9.27;97.10
77299;BME280;66361;52.034;20.656;2024-03-23T07:17:21;98855.81;;;9.38;97.59
77299;BME280;66361;52.034;20.656;2024-03-23T07:21:04;98857.31;;;9.58;97.07
77299;BME280;66361;52.034;20.656;2024-03-23T07:24:48;98864.41;;;9.72;96.51
77299;BME280;66361;52.034;20.656;2024-03-23T07:28:31;98853.63;;;9.76;96.07
77299;BME280;66361;52.034;20.656;2024-03-23T07:32:15;98856.38;;;9.89;95.95
77299;BME280;66361;52.034;20.656;2024-03-23T07:35:58;98856.59;;;10.14;95.49
77299;BME280;66361;52.034;20.656;2024-03-23T07:39:43;98841.38;;;10.05;94.62
77299;BME280;66361;52.034;20.656;2024-03-23T07:43:26;98835.25;;;10.05;94.00
77299;BME280;66361;52.034;20.656;2024-03-23T07:47:08;98829.16;;;10.18;93.94
77299;BME280;66361;52.034;20.656;2024-03-23T07:51:00;98824.75;;;10.47;93.27
77299;BME280;66361;52.034;20.656;2024-03-23T07:54:45;98831.31;;;10.68;92.25
77299;BME280;66361;52.034;20.656;2024-03-23T07:58:27;98823.66;;;10.92;91.89
77299;BME280;66361;52.034;20.656;2024-03-23T08:02:10;98823.63;;;11.21;90.61
77299;BME280;66361;52.034;20.656;2024-03-23T08:05:53;98818.63;;;11.43;89.16
77299;BME280;66361;52.034;20.656;2024-03-23T08:09:35;98813.44;;;11.41;88.02
77299;BME280;66361;52.034;20.656;2024-03-23T08:13:19;98803.31;;;11.48;87.34
77299;BME280;66361;52.034;20.656;2024-03-23T08:17:00;98795.91;;;11.80;86.73
77299;BME280;66361;52.034;20.656;2024-03-23T08:20:43;98777.91;;;13.10;83.28
77299;BME280;66361;52.034;20.656;2024-03-23T08:24:26;98776.84;;;14.40;79.00
77299;BME280;66361;52.034;20.656;2024-03-23T08:28:09;98760.94;;;16.01;69.68
77299;BME280;66361;52.034;20.656;2024-03-23T08:31:52;98761.59;;;17.44;64.92
77299;BME280;66361;52.034;20.656;2024-03-23T08:35:35;98758.72;;;18.69;60.82
77299;BME280;66361;52.034;20.656;2024-03-23T08:39:16;98739.09;;;19.68;56.48
77299;BME280;66361;52.034;20.656;2024-03-23T08:42:59;98735.72;;;19.66;54.26
77299;BME280;66361;52.034;20.656;2024-03-23T08:46:41;98744.09;;;21.08;52.38
77299;BME280;66361;52.034;20.656;2024-03-23T08:50:25;98737.16;;;21.88;49.72
77299;BME280;66361;52.034;20.656;2024-03-23T08:54:08;98733.59;;;21.39;51.15
77299;BME280;66361;52.034;20.656;2024-03-23T08:57:51;98722.28;;;21.03;52.58
77299;BME280;66361;52.034;20.656;2024-03-23T09:01:33;98714.50;;;21.50;50.47
77299;BME280;66361;52.034;20.656;2024-03-23T09:05:16;98701.84;;;20.60;51.64
77299;BME280;66361;52.034;20.656;2024-03-23T09:09:00;98693.53;;;21.86;49.14
77299;BME280;66361;52.034;20.656;2024-03-23T09:12:43;98690.03;;;20.11;50.53
77299;BME280;66361;52.034;20.656;2024-03-23T09:16:26;98690.25;;;20.94;51.50
77299;BME280;66361;52.034;20.656;2024-03-23T09:20:10;98684.25;;;18.83;52.47
77299;BME280;66361;52.034;20.656;2024-03-23T09:23:52;98678.06;;;17.91;55.64
77299;BME280;66361;52.034;20.656;2024-03-23T09:27:37;98671.09;;;17.32;60.77
77299;BME280;66361;52.034;20.656;2024-03-23T09:31:19;98667.00;;;16.61;62.32
77299;BME280;66361;52.034;20.656;2024-03-23T09:35:02;98668.94;;;16.59;61.04
77299;BME280;66361;52.034;20.656;2024-03-23T09:38:43;98663.72;;;16.48;63.06
77299;BME280;66361;52.034;20.656;2024-03-23T09:42:26;98650.06;;;16.32;63.65
77299;BME280;66361;52.034;20.656;2024-03-23T09:46:10;98631.66;;;16.59;64.52
77299;BME280;66361;52.034;20.656;2024-03-23T09:49:54;98618.59;;;17.71;60.55
77299;BME280;66361;52.034;20.656;2024-03-23T09:53:37;98609.88;;;18.61;56.41
77299;BME280;66361;52.034;20.656;2024-03-23T09:57:19;98599.97;;;19.24;54.78
77299;BME280;66361;52.034;20.656;2024-03-23T10:01:02;98580.34;;;18.98;53.54
77299;BME280;66361;52.034;20.656;2024-03-23T10:04:48;98570.63;;;20.85;50.45
77299;BME280;66361;52.034;20.656;2024-03-23T10:08:30;98559.75;;;21.43;46.53
77299;BME280;66361;52.034;20.656;2024-03-23T10:12:16;98555.31;;;20.53;51.31
77299;BME280;66361;52.034;20.656;2024-03-23T10:15:58;98547.19;;;21.90;48.36
77299;BME280;66361;52.034;20.656;2024-03-23T10:19:41;98537.09;;;20.80;50.29
77299;BME280;66361;52.034;20.656;2024-03-23T10:23:26;98519.34;;;21.12;49.34
77299;BME280;66361;52.034;20.656;2024-03-23T10:27:08;98518.38;;;20.72;49.44
77299;BME280;66361;52.034;20.656;2024-03-23T10:30:51;98510.13;;;21.23;49.38
77299;BME280;66361;52.034;20.656;2024-03-23T10:34:34;98503.44;;;20.62;50.38
77299;BME280;66361;52.034;20.656;2024-03-23T10:38:17;98504.53;;;19.77;51.96
77299;BME280;66361;52.034;20.656;2024-03-23T10:42:04;98492.59;;;19.37;51.63
77299;BME280;66361;52.034;20.656;2024-03-23T10:45:49;98493.28;;;19.39;52.57
77299;BME280;66361;52.034;20.656;2024-03-23T10:49:32;98471.53;;;19.08;53.38
77299;BME280;66361;52.034;20.656;2024-03-23T10:53:15;98457.72;;;18.51;52.08
77299;BME280;66361;52.034;20.656;2024-03-23T10:56:59;98450.50;;;19.39;51.62
77299;BME280;66361;52.034;20.656;2024-03-23T11:00:45;98464.72;;;19.40;51.16
77299;BME280;66361;52.034;20.656;2024-03-23T11:04:32;98456.75;;;19.22;53.00
77299;BME280;66361;52.034;20.656;2024-03-23T11:08:30;98460.00;;;19.67;52.46
77299;BME280;66361;52.034;20.656;2024-03-23T11:12:28;98465.66;;;18.79;51.54
77299;BME280;66361;52.034;20.656;2024-03-23T11:16:16;98460.50;;;19.03;52.51
77299;BME280;66361;52.034;20.656;2024-03-23T11:20:00;98446.47;;;18.83;51.96
77299;BME280;66361;52.034;20.656;2024-03-23T11:23:43;98431.94;;;18.60;54.60
77299;BME280;66361;52.034;20.656;2024-03-23T11:27:26;98422.56;;;18.74;53.16
77299;BME280;66361;52.034;20.656;2024-03-23T11:31:09;98421.78;;;18.64;53.09
77299;BME280;66361;52.034;20.656;2024-03-23T11:34:54;98411.28;;;17.91;52.04
77299;BME280;66361;52.034;20.656;2024-03-23T11:38:37;98405.41;;;17.88;53.84
77299;BME280;66361;52.034;20.656;2024-03-23T11:42:20;98387.06;;;17.85;53.92
77299;BME280;66361;52.034;20.656;2024-03-23T11:46:03;98391.22;;;17.69;55.68
77299;BME280;66361;52.034;20.656;2024-03-23T11:49:48;98375.59;;;17.74;53.72
77299;BME280;66361;52.034;20.656;2024-03-23T11:53:33;98368.75;;;17.72;53.55
77299;BME280;66361;52.034;20.656;2024-03-23T11:57:16;98365.63;;;18.56;50.90
77299;BME280;66361;52.034;20.656;2024-03-23T12:01:01;98364.28;;;18.34;48.96
77299;BME280;66361;52.034;20.656;2024-03-23T12:04:44;98357.75;;;18.10;52.18
77299;BME280;66361;52.034;20.656;2024-03-23T12:08:29;98356.09;;;18.09;52.22
77299;BME280;66361;52.034;20.656;2024-03-23T12:12:16;98349.59;;;18.73;48.96
77299;BME280;66361;52.034;20.656;2024-03-23T12:16:09;98349.38;;;18.23;49.28
77299;BME280;66361;52.034;20.656;2024-03-23T12:19:52;98321.63;;;18.16;49.40
77299;BME280;66361;52.034;20.656;2024-03-23T12:23:36;98322.28;;;18.36;49.76
77299;BME280;66361;52.034;20.656;2024-03-23T12:27:23;98314.69;;;18.23;49.26
77299;BME280;66361;52.034;20.656;2024-03-23T12:31:06;98306.19;;;18.28;49.32
77299;BME280;66361;52.034;20.656;2024-03-23T12:34:48;98292.94;;;17.92;49.05
77299;BME280;66361;52.034;20.656;2024-03-23T12:38:31;98291.25;;;17.91;50.06
77299;BME280;66361;52.034;20.656;2024-03-23T12:42:14;98290.03;;;17.86;50.33
77299;BME280;66361;52.034;20.656;2024-03-23T12:45:59;98282.41;;;17.73;51.58
77299;BME280;66361;52.034;20.656;2024-03-23T12:49:42;98262.19;;;17.53;51.59
77299;BME280;66361;52.034;20.656;2024-03-23T12:53:28;98262.22;;;17.08;52.63
77299;BME280;66361;52.034;20.656;2024-03-23T12:57:11;98251.00;;;16.86;52.17
77299;BME280;66361;52.034;20.656;2024-03-23T13:00:53;98249.69;;;16.73;53.31
77299;BME280;66361;52.034;20.656;2024-03-23T13:04:37;98224.78;;;16.91;53.83
77299;BME280;66361;52.034;20.656;2024-03-23T13:08:20;98219.41;;;17.36;52.33
77299;BME280;66361;52.034;20.656;2024-03-23T13:12:03;98221.16;;;17.46;52.99
77299;BME280;66361;52.034;20.656;2024-03-23T13:15:49;98215.22;;;17.34;53.98
77299;BME280;66361;52.034;20.656;2024-03-23T13:19:32;98213.44;;;17.07;54.32
77299;BME280;66361;52.034;20.656;2024-03-23T13:23:16;98203.72;;;16.98;55.27
77299;BME280;66361;52.034;20.656;2024-03-23T13:27:00;98182.97;;;16.74;54.66
77299;BME280;66361;52.034;20.656;2024-03-23T13:30:52;98170.47;;;16.57;56.16
77299;BME280;66361;52.034;20.656;2024-03-23T13:34:35;98171.97;;;16.32;55.73
77299;BME280;66361;52.034;20.656;2024-03-23T13:38:20;98168.59;;;16.30;58.81
77299;BME280;66361;52.034;20.656;2024-03-23T13:42:04;98151.41;;;16.25;57.78
77299;BME280;66361;52.034;20.656;2024-03-23T13:45:47;98148.78;;;16.15;57.29
77299;BME280;66361;52.034;20.656;2024-03-23T13:49:30;98152.19;;;16.07;59.07
77299;BME280;66361;52.034;20.656;2024-03-23T13:53:13;98141.19;;;15.93;59.14
77299;BME280;66361;52.034;20.656;2024-03-23T13:56:57;98138.28;;;15.76;59.20
77299;BME280;66361;52.034;20.656;2024-03-23T14:00:39;98141.25;;;15.64;61.68
77299;BME280;66361;52.034;20.656;2024-03-23T14:04:24;98135.28;;;15.52;59.81
77299;BME280;66361;52.034;20.656;2024-03-23T14:08:07;98116.41;;;15.46;61.73
77299;BME280;66361;52.034;20.656;2024-03-23T14:11:49;98099.66;;;15.45;64.01
77299;BME280;66361;52.034;20.656;2024-03-23T14:15:33;98094.97;;;15.57;62.22
77299;BME280;66361;52.034;20.656;2024-03-23T14:19:17;98092.31;;;15.66;63.61
77299;BME280;66361;52.034;20.656;2024-03-23T14:23:00;98095.56;;;15.60;64.02
77299;BME280;66361;52.034;20.656;2024-03-23T14:26:42;98103.28;;;15.44;66.34
77299;BME280;66361;52.034;20.656;2024-03-23T14:30:25;98099.34;;;15.19;66.06
77299;BME280;66361;52.034;20.656;2024-03-23T14:34:09;98097.13;;;14.95;66.19
77299;BME280;66361;52.034;20.656;2024-03-23T14:37:52;98085.97;;;14.63;68.80
77299;BME280;66361;52.034;20.656;2024-03-23T14:41:34;98100.88;;;14.35;73.90
77299;BME280;66361;52.034;20.656;2024-03-23T14:45:17;98101.72;;;14.05;76.91
77299;BME280;66361;52.034;20.656;2024-03-23T14:49:00;98115.72;;;13.77;78.13
77299;BME280;66361;52.034;20.656;2024-03-23T14:52:45;98114.44;;;13.51;77.70
77299;BME280;66361;52.034;20.656;2024-03-23T14:56:27;98144.88;;;13.35;79.06
77299;BME280;66361;52.034;20.656;2024-03-23T15:00:13;98176.81;;;12.91;81.52
77299;BME280;66361;52.034;20.656;2024-03-23T15:03:58;98195.78;;;12.53;81.45
77299;BME280;66361;52.034;20.656;2024-03-23T15:07:40;98199.56;;;12.17;83.24
77299;BME280;66361;52.034;20.656;2024-03-23T15:11:25;98205.97;;;11.68;85.64
77299;BME280;66361;52.034;20.656;2024-03-23T15:15:08;98228.25;;;11.42;86.83
77299;BME280;66361;52.034;20.656;2024-03-23T17:09:26;98109.66;;;10.21;91.58
77299;BME280;66361;52.034;20.656;2024-03-23T17:13:09;98096.63;;;10.20;91.35
77299;BME280;66361;52.034;20.656;2024-03-23T17:16:53;98105.09;;;10.12;91.40
77299;BME280;66361;52.034;20.656;2024-03-23T17:20:36;98115.09;;;10.07;91.59
77299;BME280;66361;52.034;20.656;2024-03-23T17:24:17;98120.19;;;9.97;92.27
77299;BME280;66361;52.034;20.656;2024-03-23T17:28:01;98145.53;;;9.98;92.10
77299;BME280;66361;52.034;20.656;2024-03-23T17:31:44;98151.94;;;10.20;92.03
77299;BME280;66361;52.034;20.656;2024-03-23T17:35:27;98162.88;;;10.26;91.24
77299;BME280;66361;52.034;20.656;2024-03-23T17:39:09;98168.59;;;10.20;88.29
77299;BME280;66361;52.034;20.656;2024-03-23T17:42:53;98177.69;;;10.04;87.42
77299;BME280;66361;52.034;20.656;2024-03-23T17:46:37;98205.59;;;9.93;85.68
77299;BME280;66361;52.034;20.656;2024-03-23T17:50:18;98200.34;;;9.81;85.40
77299;BME280;66361;52.034;20.656;2024-03-23T17:54:01;98224.66;;;9.72;84.82
77299;BME280;66361;52.034;20.656;2024-03-23T17:57:44;98240.56;;;9.70;84.96
77299;BME280;66361;52.034;20.656;2024-03-23T18:01:27;98240.22;;;9.62;85.35
77299;BME280;66361;52.034;20.656;2024-03-23T18:05:10;98246.56;;;9.59;85.86
77299;BME280;66361;52.034;20.656;2024-03-23T18:08:53;98260.84;;;9.55;85.47
77299;BME280;66361;52.034;20.656;2024-03-23T18:12:36;98306.81;;;9.37;85.52
77299;BME280;66361;52.034;20.656;2024-03-23T18:16:18;98317.03;;;8.60;86.57
77299;BME280;66361;52.034;20.656;2024-03-23T18:20:00;98351.44;;;8.13;86.94
77299;BME280;66361;52.034;20.656;2024-03-23T18:23:46;98394.16;;;7.86;87.31
77299;BME280;66361;52.034;20.656;2024-03-23T18:27:29;98402.25;;;7.52;87.68
77299;BME280;66361;52.034;20.656;2024-03-23T18:31:12;98418.69;;;7.40;86.55
77299;BME280;66361;52.034;20.656;2024-03-23T18:34:54;98436.44;;;7.03;87.19
77299;BME280;66361;52.034;20.656;2024-03-23T18:38:36;98445.03;;;6.90;87.43
77299;BME280;66361;52.034;20.656;2024-03-23T18:42:20;98460.00;;;6.70;87.15
77299;BME280;66361;52.034;20.656;2024-03-23T18:46:03;98484.91;;;6.62;88.01
77299;BME280;66361;52.034;20.656;2024-03-23T18:49:46;98484.66;;;6.49;86.45
77299;BME280;66361;52.034;20.656;2024-03-23T18:53:28;98481.97;;;6.33;86.86
77299;BME280;66361;52.034;20.656;2024-03-23T18:57:10;98490.47;;;6.21;86.90
77299;BME280;66361;52.034;20.656;2024-03-23T19:01:00;98503.84;;;6.15;87.68
77299;BME280;66361;52.034;20.656;2024-03-23T19:04:44;98525.84;;;5.94;87.83
77299;BME280;66361;52.034;20.656;2024-03-23T19:08:27;98536.44;;;5.91;88.80
77299;BME280;66361;52.034;20.656;2024-03-23T19:12:09;98559.09;;;5.73;89.11
77299;BME280;66361;52.034;20.656;2024-03-23T19:15:52;98569.13;;;5.63;90.30
77299;BME280;66361;52.034;20.656;2024-03-23T19:19:37;98587.00;;;5.54;91.11
77299;BME280;66361;52.034;20.656;2024-03-23T19:23:18;98592.13;;;5.38;91.36
77299;BME280;66361;52.034;20.656;2024-03-23T19:27:01;98609.56;;;5.38;91.14
77299;BME280;66361;52.034;20.656;2024-03-23T19:30:44;98628.09;;;5.31;90.83
77299;BME280;66361;52.034;20.656;2024-03-23T19:34:26;98631.72;;;5.29;90.88
77299;BME280;66361;52.034;20.656;2024-03-23T19:38:13;98649.22;;;5.27;90.83
77299;BME280;66361;52.034;20.656;2024-03-23T19:41:55;98649.78;;;5.15;90.72
77299;BME280;66361;52.034;20.656;2024-03-23T19:45:37;98633.19;;;5.16;90.71
77299;BME280;66361;52.034;20.656;2024-03-23T19:49:20;98644.66;;;5.12;90.03
77299;BME280;66361;52.034;20.656;2024-03-23T19:53:04;98651.47;;;5.16;90.26
77299;BME280;66361;52.034;20.656;2024-03-23T19:56:50;98668.25;;;5.10;89.67
77299;BME280;66361;52.034;20.656;2024-03-23T20:00:31;98669.34;;;5.05;89.46
77299;BME280;66361;52.034;20.656;2024-03-23T20:04:14;98670.16;;;5.07;88.66
77299;BME280;66361;52.034;20.656;2024-03-23T20:07:57;98664.28;;;5.02;88.41
77299;BME280;66361;52.034;20.656;2024-03-23T20:11:40;98677.19;;;5.05;88.43
77299;BME280;66361;52.034;20.656;2024-03-23T20:15:25;98698.91;;;5.07;88.59
77299;BME280;66361;52.034;20.656;2024-03-23T20:19:07;98696.22;;;5.08;88.55
77299;BME280;66361;52.034;20.656;2024-03-23T20:22:51;98704.91;;;5.09;88.02
77299;BME280;66361;52.034;20.656;2024-03-23T20:26:33;98703.31;;;5.05;88.16
77299;BME280;66361;52.034;20.656;2024-03-23T20:30:16;98708.69;;;5.02;88.09
77299;BME280;66361;52.034;20.656;2024-03-23T20:33:59;98714.16;;;4.96;87.93
77299;BME280;66361;52.034;20.656;2024-03-23T20:37:43;98713.19;;;4.98;88.21
77299;BME280;66361;52.034;20.656;2024-03-23T20:41:25;98712.97;;;5.03;87.36
77299;BME280;66361;52.034;20.656;2024-03-23T20:45:09;98713.97;;;5.00;87.47
77299;BME280;66361;52.034;20.656;2024-03-23T20:48:52;98724.38;;;5.02;87.69
77299;BME280;66361;52.034;20.656;2024-03-23T20:52:37;98730.56;;;4.99;87.44
77299;BME280;66361;52.034;20.656;2024-03-23T20:56:20;98748.19;;;4.94;87.48
77299;BME280;66361;52.034;20.656;2024-03-23T21:00:03;98751.78;;;4.91;87.60
77299;BME280;66361;52.034;20.656;2024-03-23T21:03:49;98748.38;;;4.89;87.34
77299;BME280;66361;52.034;20.656;2024-03-23T21:07:32;98738.78;;;4.90;87.22
77299;BME280;66361;52.034;20.656;2024-03-23T21:11:16;98736.16;;;4.90;87.12
77299;BME280;66361;52.034;20.656;2024-03-23T21:14:59;98747.34;;;4.94;87.29
77299;BME280;66361;52.034;20.656;2024-03-23T21:18:42;98757.78;;;4.94;87.03
77299;BME280;66361;52.034;20.656;2024-03-23T21:22:25;98766.59;;;4.91;87.01
77299;BME280;66361;52.034;20.656;2024-03-23T21:26:09;98769.91;;;4.95;87.32
77299;BME280;66361;52.034;20.656;2024-03-23T21:29:53;98774.22;;;4.96;87.01
77299;BME280;66361;52.034;20.656;2024-03-23T21:33:34;98757.66;;;4.97;86.47
77299;BME280;66361;52.034;20.656;2024-03-23T21:37:17;98747.41;;;4.92;86.47
77299;BME280;66361;52.034;20.656;2024-03-23T21:40:59;98738.81;;;4.88;86.14
77299;BME280;66361;52.034;20.656;2024-03-23T21:44:42;98734.41;;;4.90;86.23
77299;BME280;66361;52.034;20.656;2024-03-23T21:48:25;98738.78;;;4.90;86.28
77299;BME280;66361;52.034;20.656;2024-03-23T21:52:09;98759.47;;;4.95;86.31
77299;BME280;66361;52.034;20.656;2024-03-23T21:55:51;98762.16;;;4.93;86.43
77299;BME280;66361;52.034;20.656;2024-03-23T21:59:34;98751.97;;;4.87;86.36
77299;BME280;66361;52.034;20.656;2024-03-23T22:03:17;98761.38;;;4.91;86.21
